sensor_id;sensor_type;location;lat;lon;timestamp;temperature;humidity
14079;DHT22;7115;50.150;8.568;2022-12-22T00:02:15;10.20;99.90
14079;DHT22;7115;50.150;8.568;2022-12-22T00:05:10;10.20;99.90
14079;DHT22;7115;50.150;8.568;2022-12-22T00:07:56;10.20;99.90
14079;DHT22;7115;50.150;8.568;2022-12-22T00:10:41;10.20;99.90
14079;DHT22;7115;50.150;8.568;2022-12-22T00:13:27;10.20;99.90
14079;DHT22;7115;50.150;8.568;2022-12-22T00:16:13;10.20;99.90
14079;DHT22;7115;50.150;8.568;2022-12-22T00:19:00;10.20;99.90
14079;DHT22;7115;50.150;8.568;2022-12-22T00:21:45;10.20;99.90
14079;DHT22;7115;50.150;8.568;2022-12-22T00:24:30;10.20;99.90
14079;DHT22;7115;50.150;8.568;2022-12-22T00:27:20;10.30;99.90
14079;DHT22;7115;50.150;8.568;2022-12-22T00:30:12;10.30;99.90
14079;DHT22;7115;50.150;8.568;2022-12-22T00:32:58;10.40;99.90
14079;DHT22;7115;50.150;8.568;2022-12-22T00:35:45;10.40;99.90
14079;DHT22;7115;50.150;8.568;2022-12-22T00:38:30;10.40;99.90
14079;DHT22;7115;50.150;8.568;2022-12-22T00:41:16;10.40;99.90
14079;DHT22;7115;50.150;8.568;2022-12-22T00:44:01;10.30;99.90
14079;DHT22;7115;50.150;8.568;2022-12-22T00:46:46;10.30;99.90
14079;DHT22;7115;50.150;8.568;2022-12-22T00:49:33;10.30;99.90
14079;DHT22;7115;50.150;8.568;2022-12-22T00:52:22;10.20;99.90
14079;DHT22;7115;50.150;8.568;2022-12-22T00:55:12;10.20;99.90
14079;DHT22;7115;50.150;8.568;2022-12-22T00:57:58;10.20;99.90
14079;DHT22;7115;50.150;8.568;2022-12-22T01:00:43;10.20;99.90
14079;DHT22;7115;50.150;8.568;2022-12-22T01:03:29;10.20;99.90
14079;DHT22;7115;50.150;8.568;2022-12-22T01:06:15;10.20;99.90
14079;DHT22;7115;50.150;8.568;2022-12-22T01:09:03;10.20;99.90
14079;DHT22;7115;50.150;8.568;2022-12-22T01:11:49;10.20;99.90
14079;DHT22;7115;50.150;8.568;2022-12-22T01:14:34;10.20;99.90
14079;DHT22;7115;50.150;8.568;2022-12-22T01:17:20;10.30;99.90
14079;DHT22;7115;50.150;8.568;2022-12-22T01:20:06;10.30;99.90
14079;DHT22;7115;50.150;8.568;2022-12-22T01:22:51;10.30;99.90
14079;DHT22;7115;50.150;8.568;2022-12-22T01:25:38;10.30;99.90
14079;DHT22;7115;50.150;8.568;2022-12-22T01:28:24;10.30;99.90
14079;DHT22;7115;50.150;8.568;2022-12-22T01:31:16;10.30;99.90
14079;DHT22;7115;50.150;8.568;2022-12-22T01:34:02;10.30;99.90
14079;DHT22;7115;50.150;8.568;2022-12-22T01:36:48;10.30;99.90
14079;DHT22;7115;50.150;8.568;2022-12-22T01:39:33;10.30;99.90
14079;DHT22;7115;50.150;8.568;2022-12-22T01:42:21;10.30;99.90
14079;DHT22;7115;50.150;8.568;2022-12-22T01:45:20;10.30;99.90
14079;DHT22;7115;50.150;8.568;2022-12-22T01:48:10;10.40;99.90
14079;DHT22;7115;50.150;8.568;2022-12-22T01:50:56;10.40;99.90
14079;DHT22;7115;50.150;8.568;2022-12-22T01:53:44;10.40;99.90
14079;DHT22;7115;50.150;8.568;2022-12-22T01:56:31;10.40;99.90
14079;DHT22;7115;50.150;8.568;2022-12-22T01:59:18;10.50;99.90
14079;DHT22;7115;50.150;8.568;2022-12-22T02:02:04;10.50;99.90
14079;DHT22;7115;50.150;8.568;2022-12-22T02:04:51;10.40;99.90
14079;DHT22;7115;50.150;8.568;2022-12-22T02:07:49;10.40;99.90
14079;DHT22;7115;50.150;8.568;2022-12-22T02:13:56;10.40;99.90
14079;DHT22;7115;50.150;8.568;2022-12-22T02:16:48;10.40;99.90
14079;DHT22;7115;50.150;8.568;2022-12-22T02:19:49;10.30;99.90
14079;DHT22;7115;50.150;8.568;2022-12-22T02:22:45;10.30;99.90
14079;DHT22;7115;50.150;8.568;2022-12-22T02:25:38;10.30;99.90
14079;DHT22;7115;50.150;8.568;2022-12-22T02:28:27;10.30;99.90
14079;DHT22;7115;50.150;8.568;2022-12-22T02:31:15;10.30;99.90
14079;DHT22;7115;50.150;8.568;2022-12-22T02:34:01;10.30;99.90
14079;DHT22;7115;50.150;8.568;2022-12-22T02:36:51;10.30;99.90
14079;DHT22;7115;50.150;8.568;2022-12-22T02:39:45;10.30;99.90
14079;DHT22;7115;50.150;8.568;2022-12-22T02:42:34;10.30;99.90
14079;DHT22;7115;50.150;8.568;2022-12-22T02:45:27;10.30;99.90
14079;DHT22;7115;50.150;8.568;2022-12-22T02:48:16;10.30;99.90
14079;DHT22;7115;50.150;8.568;2022-12-22T02:51:07;10.30;99.90
14079;DHT22;7115;50.150;8.568;2022-12-22T02:53:55;10.30;99.90
14079;DHT22;7115;50.150;8.568;2022-12-22T02:56:42;10.30;99.90
14079;DHT22;7115;50.150;8.568;2022-12-22T02:59:31;10.30;99.90
14079;DHT22;7115;50.150;8.568;2022-12-22T03:02:18;10.30;99.90
14079;DHT22;7115;50.150;8.568;2022-12-22T03:05:04;10.40;99.90
14079;DHT22;7115;50.150;8.568;2022-12-22T03:07:50;10.40;99.90
14079;DHT22;7115;50.150;8.568;2022-12-22T03:10:35;10.40;99.90
14079;DHT22;7115;50.150;8.568;2022-12-22T03:13:21;10.40;99.90
14079;DHT22;7115;50.150;8.568;2022-12-22T03:16:06;10.40;99.90
14079;DHT22;7115;50.150;8.568;2022-12-22T03:18:53;10.40;99.90
14079;DHT22;7115;50.150;8.568;2022-12-22T03:21:38;10.50;99.90
14079;DHT22;7115;50.150;8.568;2022-12-22T03:24:23;10.50;99.90
14079;DHT22;7115;50.150;8.568;2022-12-22T03:27:09;10.50;99.90
14079;DHT22;7115;50.150;8.568;2022-12-22T03:29:36;10.50;99.90
14079;DHT22;7115;50.150;8.568;2022-12-22T03:32:03;10.50;99.90
14079;DHT22;7115;50.150;8.568;2022-12-22T03:34:31;10.60;99.90
14079;DHT22;7115;50.150;8.568;2022-12-22T03:36:58;10.60;99.90
14079;DHT22;7115;50.150;8.568;2022-12-22T03:39:25;10.60;99.90
14079;DHT22;7115;50.150;8.568;2022-12-22T03:41:52;10.60;99.90
14079;DHT22;7115;50.150;8.568;2022-12-22T03:44:37;10.60;99.90
14079;DHT22;7115;50.150;8.568;2022-12-22T03:47:22;10.60;99.90
14079;DHT22;7115;50.150;8.568;2022-12-22T03:49:51;10.60;99.90
14079;DHT22;7115;50.150;8.568;2022-12-22T03:52:18;10.70;99.90
14079;DHT22;7115;50.150;8.568;2022-12-22T03:54:44;10.60;99.90
14079;DHT22;7115;50.150;8.568;2022-12-22T03:57:11;10.60;99.90
14079;DHT22;7115;50.150;8.568;2022-12-22T03:59:38;10.60;99.90
14079;DHT22;7115;50.150;8.568;2022-12-22T04:02:06;10.60;99.90
14079;DHT22;7115;50.150;8.568;2022-12-22T04:04:33;10.60;99.90
14079;DHT22;7115;50.150;8.568;2022-12-22T04:07:01;10.60;99.90
14079;DHT22;7115;50.150;8.568;2022-12-22T04:09:28;10.60;99.90
14079;DHT22;7115;50.150;8.568;2022-12-22T04:11:55;10.60;99.90
14079;DHT22;7115;50.150;8.568;2022-12-22T04:14:40;10.60;99.90
14079;DHT22;7115;50.150;8.568;2022-12-22T04:17:07;10.60;99.90
14079;DHT22;7115;50.150;8.568;2022-12-22T04:19:35;10.60;99.90
14079;DHT22;7115;50.150;8.568;2022-12-22T04:22:03;10.60;99.90
14079;DHT22;7115;50.150;8.568;2022-12-22T04:24:30;10.60;99.90
14079;DHT22;7115;50.150;8.568;2022-12-22T04:26:57;10.60;99.90
14079;DHT22;7115;50.150;8.568;2022-12-22T04:29:24;10.50;99.90
14079;DHT22;7115;50.150;8.568;2022-12-22T04:31:52;10.50;99.90
14079;DHT22;7115;50.150;8.568;2022-12-22T04:34:19;10.50;99.90
14079;DHT22;7115;50.150;8.568;2022-12-22T04:36:46;10.50;99.90
14079;DHT22;7115;50.150;8.568;2022-12-22T04:39:14;10.50;99.90
14079;DHT22;7115;50.150;8.568;2022-12-22T04:41:41;10.60;99.90
14079;DHT22;7115;50.150;8.568;2022-12-22T04:44:08;10.50;99.90
14079;DHT22;7115;50.150;8.568;2022-12-22T04:46:35;10.60;99.90
14079;DHT22;7115;50.150;8.568;2022-12-22T04:49:02;10.50;99.90
14079;DHT22;7115;50.150;8.568;2022-12-22T04:51:29;10.50;99.90
14079;DHT22;7115;50.150;8.568;2022-12-22T04:53:56;10.50;99.90
14079;DHT22;7115;50.150;8.568;2022-12-22T04:56:24;10.60;99.90
14079;DHT22;7115;50.150;8.568;2022-12-22T04:58:51;10.60;99.90
14079;DHT22;7115;50.150;8.568;2022-12-22T05:01:18;10.60;99.90
14079;DHT22;7115;50.150;8.568;2022-12-22T05:03:45;10.60;99.90
14079;DHT22;7115;50.150;8.568;2022-12-22T05:06:13;10.60;99.90
14079;DHT22;7115;50.150;8.568;2022-12-22T05:08:40;10.60;99.90
14079;DHT22;7115;50.150;8.568;2022-12-22T05:11:07;10.60;99.90
14079;DHT22;7115;50.150;8.568;2022-12-22T05:13:35;10.60;99.90
14079;DHT22;7115;50.150;8.568;2022-12-22T05:16:03;10.60;99.90
14079;DHT22;7115;50.150;8.568;2022-12-22T05:18:31;10.60;99.90
14079;DHT22;7115;50.150;8.568;2022-12-22T05:21:01;10.70;99.90
14079;DHT22;7115;50.150;8.568;2022-12-22T05:23:28;10.70;99.90
14079;DHT22;7115;50.150;8.568;2022-12-22T05:25:55;10.70;99.90
14079;DHT22;7115;50.150;8.568;2022-12-22T05:28:21;10.70;99.90
14079;DHT22;7115;50.150;8.568;2022-12-22T05:30:50;10.70;99.90
14079;DHT22;7115;50.150;8.568;2022-12-22T05:33:17;10.80;99.90
14079;DHT22;7115;50.150;8.568;2022-12-22T05:35:44;10.80;99.90
14079;DHT22;7115;50.150;8.568;2022-12-22T05:38:11;10.70;99.90
14079;DHT22;7115;50.150;8.568;2022-12-22T05:40:37;10.80;99.90
14079;DHT22;7115;50.150;8.568;2022-12-22T05:43:04;10.70;99.90
14079;DHT22;7115;50.150;8.568;2022-12-22T05:45:31;10.80;99.90
14079;DHT22;7115;50.150;8.568;2022-12-22T05:47:59;10.80;99.90
14079;DHT22;7115;50.150;8.568;2022-12-22T05:50:26;10.70;99.90
14079;DHT22;7115;50.150;8.568;2022-12-22T05:52:54;10.70;99.90
14079;DHT22;7115;50.150;8.568;2022-12-22T05:55:23;10.80;99.90
14079;DHT22;7115;50.150;8.568;2022-12-22T05:57:50;10.80;99.90
14079;DHT22;7115;50.150;8.568;2022-12-22T06:00:18;10.70;99.90
14079;DHT22;7115;50.150;8.568;2022-12-22T06:02:45;10.70;99.90
14079;DHT22;7115;50.150;8.568;2022-12-22T06:05:13;10.70;99.90
14079;DHT22;7115;50.150;8.568;2022-12-22T06:07:41;10.70;99.90
14079;DHT22;7115;50.150;8.568;2022-12-22T06:10:09;10.80;99.90
14079;DHT22;7115;50.150;8.568;2022-12-22T06:12:39;10.80;99.90
14079;DHT22;7115;50.150;8.568;2022-12-22T06:15:07;10.80;99.90
14079;DHT22;7115;50.150;8.568;2022-12-22T06:17:34;10.80;99.90
14079;DHT22;7115;50.150;8.568;2022-12-22T06:20:11;10.80;99.90
14079;DHT22;7115;50.150;8.568;2022-12-22T06:22:40;10.80;99.90
14079;DHT22;7115;50.150;8.568;2022-12-22T06:25:08;10.80;99.90
14079;DHT22;7115;50.150;8.568;2022-12-22T06:27:43;10.90;99.90
14079;DHT22;7115;50.150;8.568;2022-12-22T06:30:11;10.80;99.90
14079;DHT22;7115;50.150;8.568;2022-12-22T06:32:38;10.80;99.90
14079;DHT22;7115;50.150;8.568;2022-12-22T06:35:06;10.80;99.90
14079;DHT22;7115;50.150;8.568;2022-12-22T06:37:34;10.80;99.90
14079;DHT22;7115;50.150;8.568;2022-12-22T06:40:03;10.80;99.90
14079;DHT22;7115;50.150;8.568;2022-12-22T06:42:30;10.80;99.90
14079;DHT22;7115;50.150;8.568;2022-12-22T06:45:15;10.80;99.90
14079;DHT22;7115;50.150;8.568;2022-12-22T06:47:42;10.80;99.90
14079;DHT22;7115;50.150;8.568;2022-12-22T06:50:09;10.80;99.90
14079;DHT22;7115;50.150;8.568;2022-12-22T06:52:36;10.80;99.90
14079;DHT22;7115;50.150;8.568;2022-12-22T06:55:05;10.80;99.90
14079;DHT22;7115;50.150;8.568;2022-12-22T06:57:32;10.80;99.90
14079;DHT22;7115;50.150;8.568;2022-12-22T06:59:59;10.80;99.90
14079;DHT22;7115;50.150;8.568;2022-12-22T07:02:26;10.80;99.90
14079;DHT22;7115;50.150;8.568;2022-12-22T07:04:53;10.90;99.90
14079;DHT22;7115;50.150;8.568;2022-12-22T07:07:20;10.90;99.90
14079;DHT22;7115;50.150;8.568;2022-12-22T07:09:47;10.90;99.90
14079;DHT22;7115;50.150;8.568;2022-12-22T07:12:15;10.90;99.90
14079;DHT22;7115;50.150;8.568;2022-12-22T07:14:42;11.00;99.90
14079;DHT22;7115;50.150;8.568;2022-12-22T07:17:09;11.00;99.90
14079;DHT22;7115;50.150;8.568;2022-12-22T07:19:36;11.00;99.90
14079;DHT22;7115;50.150;8.568;2022-12-22T07:22:03;11.00;99.90
14079;DHT22;7115;50.150;8.568;2022-12-22T07:24:30;11.00;99.90
14079;DHT22;7115;50.150;8.568;2022-12-22T07:26:57;11.10;99.90
14079;DHT22;7115;50.150;8.568;2022-12-22T07:29:25;11.10;99.90
14079;DHT22;7115;50.150;8.568;2022-12-22T07:31:52;11.10;99.90
14079;DHT22;7115;50.150;8.568;2022-12-22T07:34:19;11.10;99.90
14079;DHT22;7115;50.150;8.568;2022-12-22T07:36:46;11.10;99.90
14079;DHT22;7115;50.150;8.568;2022-12-22T07:39:13;11.10;99.90
14079;DHT22;7115;50.150;8.568;2022-12-22T07:41:40;11.10;99.90
14079;DHT22;7115;50.150;8.568;2022-12-22T07:44:27;11.10;99.90
14079;DHT22;7115;50.150;8.568;2022-12-22T07:46:53;11.10;99.90
14079;DHT22;7115;50.150;8.568;2022-12-22T07:49:20;11.20;99.90
14079;DHT22;7115;50.150;8.568;2022-12-22T07:52:06;11.20;99.90
14079;DHT22;7115;50.150;8.568;2022-12-22T07:54:34;11.20;99.90
14079;DHT22;7115;50.150;8.568;2022-12-22T07:57:07;11.20;99.90
14079;DHT22;7115;50.150;8.568;2022-12-22T07:59:36;11.20;99.90
14079;DHT22;7115;50.150;8.568;2022-12-22T08:02:02;11.30;99.90
14079;DHT22;7115;50.150;8.568;2022-12-22T08:04:29;11.30;99.90
14079;DHT22;7115;50.150;8.568;2022-12-22T08:06:57;11.30;99.90
14079;DHT22;7115;50.150;8.568;2022-12-22T08:09:24;11.30;99.90
14079;DHT22;7115;50.150;8.568;2022-12-22T08:11:51;11.30;99.90
14079;DHT22;7115;50.150;8.568;2022-12-22T08:14:17;11.30;99.90
14079;DHT22;7115;50.150;8.568;2022-12-22T08:16:46;11.30;99.90
14079;DHT22;7115;50.150;8.568;2022-12-22T08:19:13;11.30;99.90
14079;DHT22;7115;50.150;8.568;2022-12-22T08:21:40;11.30;99.90
14079;DHT22;7115;50.150;8.568;2022-12-22T08:24:15;11.30;99.90
14079;DHT22;7115;50.150;8.568;2022-12-22T08:26:44;11.30;99.90
14079;DHT22;7115;50.150;8.568;2022-12-22T08:29:16;11.30;99.90
14079;DHT22;7115;50.150;8.568;2022-12-22T08:31:45;11.30;99.90
14079;DHT22;7115;50.150;8.568;2022-12-22T08:34:14;11.20;99.90
14079;DHT22;7115;50.150;8.568;2022-12-22T08:36:43;11.30;99.90
14079;DHT22;7115;50.150;8.568;2022-12-22T08:39:12;11.30;99.90
14079;DHT22;7115;50.150;8.568;2022-12-22T08:41:39;11.30;99.90
14079;DHT22;7115;50.150;8.568;2022-12-22T08:44:16;11.30;99.90
14079;DHT22;7115;50.150;8.568;2022-12-22T08:46:43;11.30;99.90
14079;DHT22;7115;50.150;8.568;2022-12-22T08:49:11;11.30;99.90
14079;DHT22;7115;50.150;8.568;2022-12-22T08:51:39;11.30;99.90
14079;DHT22;7115;50.150;8.568;2022-12-22T08:54:06;11.30;99.90
14079;DHT22;7115;50.150;8.568;2022-12-22T08:56:33;11.30;99.90
14079;DHT22;7115;50.150;8.568;2022-12-22T08:59:01;11.30;99.90
14079;DHT22;7115;50.150;8.568;2022-12-22T09:01:32;11.30;99.90
14079;DHT22;7115;50.150;8.568;2022-12-22T09:03:59;11.30;99.90
14079;DHT22;7115;50.150;8.568;2022-12-22T09:06:28;11.30;99.90
14079;DHT22;7115;50.150;8.568;2022-12-22T09:09:06;11.30;99.90
14079;DHT22;7115;50.150;8.568;2022-12-22T09:11:33;11.30;99.90
14079;DHT22;7115;50.150;8.568;2022-12-22T09:14:01;11.30;99.90
14079;DHT22;7115;50.150;8.568;2022-12-22T09:16:29;11.40;99.90
14079;DHT22;7115;50.150;8.568;2022-12-22T09:18:57;11.40;99.90
14079;DHT22;7115;50.150;8.568;2022-12-22T09:21:25;11.40;99.90
14079;DHT22;7115;50.150;8.568;2022-12-22T09:23:53;11.40;99.90
14079;DHT22;7115;50.150;8.568;2022-12-22T09:26:22;11.40;99.90
14079;DHT22;7115;50.150;8.568;2022-12-22T09:28:49;11.40;99.90
14079;DHT22;7115;50.150;8.568;2022-12-22T09:31:17;11.40;99.90
14079;DHT22;7115;50.150;8.568;2022-12-22T09:33:45;11.40;99.90
14079;DHT22;7115;50.150;8.568;2022-12-22T09:36:14;11.40;99.90
14079;DHT22;7115;50.150;8.568;2022-12-22T09:38:42;11.40;99.90
14079;DHT22;7115;50.150;8.568;2022-12-22T09:41:14;11.40;99.90
14079;DHT22;7115;50.150;8.568;2022-12-22T09:43:42;11.40;99.90
14079;DHT22;7115;50.150;8.568;2022-12-22T09:46:16;11.40;99.90
14079;DHT22;7115;50.150;8.568;2022-12-22T09:48:44;11.30;99.90
14079;DHT22;7115;50.150;8.568;2022-12-22T09:51:12;11.30;99.90
14079;DHT22;7115;50.150;8.568;2022-12-22T09:53:41;11.20;99.90
14079;DHT22;7115;50.150;8.568;2022-12-22T09:56:13;11.30;99.90
14079;DHT22;7115;50.150;8.568;2022-12-22T09:58:41;11.30;99.90
14079;DHT22;7115;50.150;8.568;2022-12-22T10:01:24;11.30;99.90
14079;DHT22;7115;50.150;8.568;2022-12-22T10:04:01;11.30;99.90
14079;DHT22;7115;50.150;8.568;2022-12-22T10:06:32;11.30;99.90
14079;DHT22;7115;50.150;8.568;2022-12-22T10:09:13;11.30;99.90
14079;DHT22;7115;50.150;8.568;2022-12-22T10:12:04;11.30;99.90
14079;DHT22;7115;50.150;8.568;2022-12-22T10:14:35;11.30;99.90
14079;DHT22;7115;50.150;8.568;2022-12-22T10:17:14;11.30;99.90
14079;DHT22;7115;50.150;8.568;2022-12-22T10:19:42;11.30;99.90
14079;DHT22;7115;50.150;8.568;2022-12-22T10:22:25;11.30;99.90
14079;DHT22;7115;50.150;8.568;2022-12-22T10:24:53;11.30;99.90
14079;DHT22;7115;50.150;8.568;2022-12-22T10:27:23;11.30;99.90
14079;DHT22;7115;50.150;8.568;2022-12-22T10:30:17;11.30;99.90
14079;DHT22;7115;50.150;8.568;2022-12-22T10:33:03;11.30;99.90
14079;DHT22;7115;50.150;8.568;2022-12-22T10:35:46;11.40;99.90
14079;DHT22;7115;50.150;8.568;2022-12-22T10:38:17;11.40;99.90
14079;DHT22;7115;50.150;8.568;2022-12-22T10:40:49;11.40;99.90
14079;DHT22;7115;50.150;8.568;2022-12-22T10:43:22;11.50;99.90
14079;DHT22;7115;50.150;8.568;2022-12-22T10:45:53;11.60;99.90
14079;DHT22;7115;50.150;8.568;2022-12-22T10:48:26;11.70;99.90
14079;DHT22;7115;50.150;8.568;2022-12-22T10:50:55;11.80;99.90
14079;DHT22;7115;50.150;8.568;2022-12-22T10:53:47;11.90;99.90
14079;DHT22;7115;50.150;8.568;2022-12-22T10:56:21;11.90;99.90
14079;DHT22;7115;50.150;8.568;2022-12-22T10:58:51;11.90;99.90
14079;DHT22;7115;50.150;8.568;2022-12-22T11:01:25;11.90;99.90
14079;DHT22;7115;50.150;8.568;2022-12-22T11:03:53;11.90;99.90
14079;DHT22;7115;50.150;8.568;2022-12-22T11:06:20;11.90;99.90
14079;DHT22;7115;50.150;8.568;2022-12-22T11:08:47;12.00;99.90
14079;DHT22;7115;50.150;8.568;2022-12-22T11:11:32;12.00;99.90
14079;DHT22;7115;50.150;8.568;2022-12-22T11:14:10;12.00;99.90
14079;DHT22;7115;50.150;8.568;2022-12-22T11:16:46;12.00;99.90
14079;DHT22;7115;50.150;8.568;2022-12-22T11:19:35;12.00;99.90
14079;DHT22;7115;50.150;8.568;2022-12-22T11:22:12;12.00;99.90
14079;DHT22;7115;50.150;8.568;2022-12-22T11:24:55;12.00;99.90
14079;DHT22;7115;50.150;8.568;2022-12-22T11:27:31;11.90;99.90
14079;DHT22;7115;50.150;8.568;2022-12-22T11:30:09;11.90;99.90
14079;DHT22;7115;50.150;8.568;2022-12-22T11:32:57;11.90;99.90
14079;DHT22;7115;50.150;8.568;2022-12-22T11:35:46;12.00;99.90
14079;DHT22;7115;50.150;8.568;2022-12-22T11:38:23;11.90;99.90
14079;DHT22;7115;50.150;8.568;2022-12-22T11:40:59;11.90;99.90
14079;DHT22;7115;50.150;8.568;2022-12-22T11:43:36;11.90;99.90
14079;DHT22;7115;50.150;8.568;2022-12-22T11:46:18;11.90;99.90
14079;DHT22;7115;50.150;8.568;2022-12-22T11:49:12;12.00;99.90
14079;DHT22;7115;50.150;8.568;2022-12-22T11:51:58;11.90;99.90
14079;DHT22;7115;50.150;8.568;2022-12-22T11:54:47;11.90;99.90
14079;DHT22;7115;50.150;8.568;2022-12-22T11:57:24;11.90;99.90
14079;DHT22;7115;50.150;8.568;2022-12-22T12:00:02;11.90;99.90
14079;DHT22;7115;50.150;8.568;2022-12-22T12:05:47;11.90;99.90
14079;DHT22;7115;50.150;8.568;2022-12-22T12:08:25;11.80;99.90
14079;DHT22;7115;50.150;8.568;2022-12-22T12:11:04;11.80;99.90
14079;DHT22;7115;50.150;8.568;2022-12-22T12:13:41;11.80;99.90
14079;DHT22;7115;50.150;8.568;2022-12-22T12:16:16;11.90;99.90
14079;DHT22;7115;50.150;8.568;2022-12-22T12:18:58;11.90;99.90
14079;DHT22;7115;50.150;8.568;2022-12-22T12:21:28;11.90;99.90
14079;DHT22;7115;50.150;8.568;2022-12-22T12:26:54;12.00;99.90
14079;DHT22;7115;50.150;8.568;2022-12-22T12:29:34;12.00;99.90
14079;DHT22;7115;50.150;8.568;2022-12-22T12:32:09;12.00;99.90
14079;DHT22;7115;50.150;8.568;2022-12-22T12:34:41;12.00;99.90
14079;DHT22;7115;50.150;8.568;2022-12-22T12:37:16;12.00;99.90
14079;DHT22;7115;50.150;8.568;2022-12-22T12:39:56;12.00;99.90
14079;DHT22;7115;50.150;8.568;2022-12-22T12:42:32;12.00;99.90
14079;DHT22;7115;50.150;8.568;2022-12-22T12:44:59;12.00;99.90
14079;DHT22;7115;50.150;8.568;2022-12-22T12:47:29;12.00;99.90
14079;DHT22;7115;50.150;8.568;2022-12-22T12:49:59;12.10;99.90
14079;DHT22;7115;50.150;8.568;2022-12-22T12:56:01;12.10;99.90
14079;DHT22;7115;50.150;8.568;2022-12-22T12:58:49;12.10;99.90
14079;DHT22;7115;50.150;8.568;2022-12-22T13:08:09;12.00;99.90
14079;DHT22;7115;50.150;8.568;2022-12-22T13:10:40;12.00;99.90
14079;DHT22;7115;50.150;8.568;2022-12-22T13:13:13;12.00;99.90
14079;DHT22;7115;50.150;8.568;2022-12-22T13:16:21;12.00;99.90
14079;DHT22;7115;50.150;8.568;2022-12-22T13:18:50;12.00;99.90
14079;DHT22;7115;50.150;8.568;2022-12-22T13:21:21;12.00;99.90
14079;DHT22;7115;50.150;8.568;2022-12-22T13:24:22;12.00;99.90
14079;DHT22;7115;50.150;8.568;2022-12-22T13:26:59;12.00;99.90
14079;DHT22;7115;50.150;8.568;2022-12-22T13:29:38;12.00;99.90
14079;DHT22;7115;50.150;8.568;2022-12-22T13:32:18;12.00;99.90
14079;DHT22;7115;50.150;8.568;2022-12-22T13:34:48;12.10;99.90
14079;DHT22;7115;50.150;8.568;2022-12-22T13:37:40;12.00;99.90
14079;DHT22;7115;50.150;8.568;2022-12-22T13:40:13;12.00;99.90
14079;DHT22;7115;50.150;8.568;2022-12-22T13:42:44;12.00;99.90
14079;DHT22;7115;50.150;8.568;2022-12-22T13:45:17;11.90;99.90
14079;DHT22;7115;50.150;8.568;2022-12-22T13:47:47;11.90;99.90
14079;DHT22;7115;50.150;8.568;2022-12-22T13:50:19;11.80;99.90
14079;DHT22;7115;50.150;8.568;2022-12-22T13:52:47;11.80;99.90
14079;DHT22;7115;50.150;8.568;2022-12-22T13:55:19;11.70;99.90
14079;DHT22;7115;50.150;8.568;2022-12-22T13:57:46;11.60;99.90
14079;DHT22;7115;50.150;8.568;2022-12-22T14:00:23;11.60;99.90
14079;DHT22;7115;50.150;8.568;2022-12-22T14:02:51;11.60;99.90
14079;DHT22;7115;50.150;8.568;2022-12-22T14:05:21;11.50;99.90
14079;DHT22;7115;50.150;8.568;2022-12-22T14:07:59;11.50;99.90
14079;DHT22;7115;50.150;8.568;2022-12-22T14:10:29;11.40;99.90
14079;DHT22;7115;50.150;8.568;2022-12-22T14:13:00;11.40;99.90
14079;DHT22;7115;50.150;8.568;2022-12-22T14:15:29;11.40;99.90
14079;DHT22;7115;50.150;8.568;2022-12-22T14:17:56;11.40;99.90
14079;DHT22;7115;50.150;8.568;2022-12-22T14:20:26;11.40;99.90
14079;DHT22;7115;50.150;8.568;2022-12-22T14:22:56;11.40;99.90
14079;DHT22;7115;50.150;8.568;2022-12-22T14:25:29;11.40;99.90
14079;DHT22;7115;50.150;8.568;2022-12-22T14:27:58;11.40;99.90
14079;DHT22;7115;50.150;8.568;2022-12-22T14:30:29;11.40;99.90
14079;DHT22;7115;50.150;8.568;2022-12-22T14:33:15;11.40;99.90
14079;DHT22;7115;50.150;8.568;2022-12-22T14:35:42;11.50;99.90
14079;DHT22;7115;50.150;8.568;2022-12-22T14:38:19;11.40;99.90
14079;DHT22;7115;50.150;8.568;2022-12-22T14:40:46;11.40;99.90
14079;DHT22;7115;50.150;8.568;2022-12-22T14:43:27;11.40;99.90
14079;DHT22;7115;50.150;8.568;2022-12-22T14:46:05;11.40;99.90
14079;DHT22;7115;50.150;8.568;2022-12-22T14:48:34;11.40;99.90
14079;DHT22;7115;50.150;8.568;2022-12-22T14:51:02;11.30;99.90
14079;DHT22;7115;50.150;8.568;2022-12-22T14:53:38;11.30;99.90
14079;DHT22;7115;50.150;8.568;2022-12-22T14:56:11;11.30;99.90
14079;DHT22;7115;50.150;8.568;2022-12-22T14:58:39;11.20;99.90
14079;DHT22;7115;50.150;8.568;2022-12-22T15:01:17;11.20;99.90
14079;DHT22;7115;50.150;8.568;2022-12-22T15:03:57;11.20;99.90
14079;DHT22;7115;50.150;8.568;2022-12-22T15:06:37;11.20;99.90
14079;DHT22;7115;50.150;8.568;2022-12-22T15:09:25;11.20;99.90
14079;DHT22;7115;50.150;8.568;2022-12-22T15:12:14;11.20;99.90
14079;DHT22;7115;50.150;8.568;2022-12-22T15:14:42;11.20;99.90
14079;DHT22;7115;50.150;8.568;2022-12-22T15:17:20;11.20;99.90
14079;DHT22;7115;50.150;8.568;2022-12-22T15:19:48;11.20;99.90
14079;DHT22;7115;50.150;8.568;2022-12-22T15:22:15;11.20;99.90
14079;DHT22;7115;50.150;8.568;2022-12-22T15:24:42;11.10;99.90
14079;DHT22;7115;50.150;8.568;2022-12-22T15:27:09;11.10;99.90
14079;DHT22;7115;50.150;8.568;2022-12-22T15:29:36;11.10;99.90
14079;DHT22;7115;50.150;8.568;2022-12-22T15:32:03;11.10;99.90
14079;DHT22;7115;50.150;8.568;2022-12-22T15:34:31;11.10;99.90
14079;DHT22;7115;50.150;8.568;2022-12-22T15:36:58;11.00;99.90
14079;DHT22;7115;50.150;8.568;2022-12-22T15:39:25;11.00;99.90
14079;DHT22;7115;50.150;8.568;2022-12-22T15:41:52;11.00;99.90
14079;DHT22;7115;50.150;8.568;2022-12-22T15:44:20;10.90;99.90
14079;DHT22;7115;50.150;8.568;2022-12-22T15:46:51;10.90;99.90
14079;DHT22;7115;50.150;8.568;2022-12-22T15:49:22;10.90;99.90
14079;DHT22;7115;50.150;8.568;2022-12-22T15:51:53;10.80;99.90
14079;DHT22;7115;50.150;8.568;2022-12-22T15:54:21;10.90;99.90
14079;DHT22;7115;50.150;8.568;2022-12-22T15:56:50;10.80;99.90
14079;DHT22;7115;50.150;8.568;2022-12-22T15:59:20;10.80;99.90
14079;DHT22;7115;50.150;8.568;2022-12-22T16:01:47;10.80;99.90
14079;DHT22;7115;50.150;8.568;2022-12-22T16:04:24;10.80;99.90
14079;DHT22;7115;50.150;8.568;2022-12-22T16:06:55;10.80;99.90
14079;DHT22;7115;50.150;8.568;2022-12-22T16:09:26;10.80;99.90
14079;DHT22;7115;50.150;8.568;2022-12-22T16:11:54;10.80;99.90
14079;DHT22;7115;50.150;8.568;2022-12-22T16:14:23;10.80;99.90
14079;DHT22;7115;50.150;8.568;2022-12-22T16:16:50;10.80;99.90
14079;DHT22;7115;50.150;8.568;2022-12-22T16:19:17;10.50;99.90
14079;DHT22;7115;50.150;8.568;2022-12-22T16:21:47;10.80;99.90
14079;DHT22;7115;50.150;8.568;2022-12-22T16:24:21;10.80;99.90
14079;DHT22;7115;50.150;8.568;2022-12-22T16:26:49;10.80;99.90
14079;DHT22;7115;50.150;8.568;2022-12-22T16:29:16;10.80;99.90
14079;DHT22;7115;50.150;8.568;2022-12-22T16:31:43;10.70;99.90
14079;DHT22;7115;50.150;8.568;2022-12-22T16:34:10;10.80;99.90
14079;DHT22;7115;50.150;8.568;2022-12-22T16:36:38;10.80;99.90
14079;DHT22;7115;50.150;8.568;2022-12-22T16:39:06;10.80;99.90
14079;DHT22;7115;50.150;8.568;2022-12-22T16:41:34;10.80;99.90
14079;DHT22;7115;50.150;8.568;2022-12-22T16:44:06;10.70;99.90
14079;DHT22;7115;50.150;8.568;2022-12-22T16:46:52;10.70;99.90
14079;DHT22;7115;50.150;8.568;2022-12-22T16:49:19;10.80;99.90
14079;DHT22;7115;50.150;8.568;2022-12-22T16:51:53;10.80;99.90